Terminal Aerodrome Forecast
Issued by NWS Cleveland, OH

Home | Current Version | Previous Version | Text Only | Print | Product List | Glossary On
Versions: 1 2 3 4 5 6 7 8 9 10 11 12 13 14 15 16 17 18 19 20 21
000
FTUS41 KCLE 050540
TAFYNG
TAF
KYNG 050540Z 0506/0606 32006KT P6SM -SHRA SCT015 OVC060
     FM050800 04006KT 4SM BR BKN008 OVC012
      TEMPO 0508/0512 2SM BR
     FM051600 02012KT P6SM SCT008 OVC012
     FM052000 02014G22KT P6SM OVC035
     FM060000 35012KT P6SM BKN050=

USA.gov is the U.S. government's official web portal to all federal, state and local government web resources and services.